sensor_id;sensor_type;location;lat;lon;timestamp;temperature;humidity
39079;DHT22;24829;49.208;12.080;2022-10-23T00:00:32;11.10;99.90
39079;DHT22;24829;49.208;12.080;2022-10-23T00:02:58;11.10;99.90
39079;DHT22;24829;49.208;12.080;2022-10-23T00:05:24;11.10;99.90
39079;DHT22;24829;49.208;12.080;2022-10-23T00:07:56;11.10;99.90
39079;DHT22;24829;49.208;12.080;2022-10-23T00:10:22;11.00;99.90
39079;DHT22;24829;49.208;12.080;2022-10-23T00:12:49;11.00;99.90
39079;DHT22;24829;49.208;12.080;2022-10-23T00:15:16;11.00;99.90
39079;DHT22;24829;49.208;12.080;2022-10-23T00:17:41;11.00;99.90
39079;DHT22;24829;49.208;12.080;2022-10-23T00:20:07;11.00;99.90
39079;DHT22;24829;49.208;12.080;2022-10-23T00:22:34;11.00;99.90
39079;DHT22;24829;49.208;12.080;2022-10-23T00:24:59;11.00;99.90
39079;DHT22;24829;49.208;12.080;2022-10-23T00:27:25;11.00;99.90
39079;DHT22;24829;49.208;12.080;2022-10-23T00:29:50;11.00;99.90
39079;DHT22;24829;49.208;12.080;2022-10-23T00:32:16;11.00;99.90
39079;DHT22;24829;49.208;12.080;2022-10-23T00:34:41;11.00;99.90
39079;DHT22;24829;49.208;12.080;2022-10-23T00:37:07;11.00;99.90
39079;DHT22;24829;49.208;12.080;2022-10-23T00:39:33;11.00;99.90
39079;DHT22;24829;49.208;12.080;2022-10-23T00:41:58;11.00;99.90
39079;DHT22;24829;49.208;12.080;2022-10-23T00:46:50;11.00;99.90
39079;DHT22;24829;49.208;12.080;2022-10-23T00:49:15;11.00;99.90
39079;DHT22;24829;49.208;12.080;2022-10-23T00:51:44;11.00;99.90
39079;DHT22;24829;49.208;12.080;2022-10-23T00:54:13;10.90;99.90
39079;DHT22;24829;49.208;12.080;2022-10-23T00:56:43;10.90;99.90
39079;DHT22;24829;49.208;12.080;2022-10-23T00:59:09;10.80;99.90
39079;DHT22;24829;49.208;12.080;2022-10-23T01:01:35;10.80;99.90
39079;DHT22;24829;49.208;12.080;2022-10-23T01:04:03;10.90;99.90
39079;DHT22;24829;49.208;12.080;2022-10-23T01:06:43;10.90;99.90
39079;DHT22;24829;49.208;12.080;2022-10-23T01:12:28;10.90;99.90
39079;DHT22;24829;49.208;12.080;2022-10-23T01:15:13;10.90;99.90
39079;DHT22;24829;49.208;12.080;2022-10-23T01:20:41;10.80;99.90
39079;DHT22;24829;49.208;12.080;2022-10-23T01:23:21;10.80;99.90
39079;DHT22;24829;49.208;12.080;2022-10-23T01:26:19;10.80;99.90
39079;DHT22;24829;49.208;12.080;2022-10-23T01:31:35;10.70;99.90
39079;DHT22;24829;49.208;12.080;2022-10-23T01:34:15;10.70;99.90
39079;DHT22;24829;49.208;12.080;2022-10-23T01:36:45;10.60;99.90
39079;DHT22;24829;49.208;12.080;2022-10-23T01:39:20;10.60;99.90
39079;DHT22;24829;49.208;12.080;2022-10-23T01:41:51;10.60;99.90
39079;DHT22;24829;49.208;12.080;2022-10-23T01:44:28;10.60;99.90
39079;DHT22;24829;49.208;12.080;2022-10-23T01:46:56;10.60;99.90
39079;DHT22;24829;49.208;12.080;2022-10-23T01:49:22;10.60;99.90
39079;DHT22;24829;49.208;12.080;2022-10-23T01:52:00;10.60;99.90
39079;DHT22;24829;49.208;12.080;2022-10-23T01:54:30;10.60;99.90
39079;DHT22;24829;49.208;12.080;2022-10-23T01:56:58;10.60;99.90
39079;DHT22;24829;49.208;12.080;2022-10-23T01:59:31;10.60;99.90
39079;DHT22;24829;49.208;12.080;2022-10-23T02:02:00;10.60;99.90
39079;DHT22;24829;49.208;12.080;2022-10-23T02:04:32;10.60;99.90
39079;DHT22;24829;49.208;12.080;2022-10-23T02:06:59;10.60;99.90
39079;DHT22;24829;49.208;12.080;2022-10-23T02:09:25;10.70;99.90
39079;DHT22;24829;49.208;12.080;2022-10-23T02:12:17;10.60;99.90
39079;DHT22;24829;49.208;12.080;2022-10-23T02:15:18;10.60;99.90
39079;DHT22;24829;49.208;12.080;2022-10-23T02:20:47;10.60;99.90
39079;DHT22;24829;49.208;12.080;2022-10-23T02:23:33;10.60;99.90
39079;DHT22;24829;49.208;12.080;2022-10-23T02:26:06;10.60;99.90
39079;DHT22;24829;49.208;12.080;2022-10-23T02:28:47;10.60;99.90
39079;DHT22;24829;49.208;12.080;2022-10-23T02:31:16;10.60;99.90
39079;DHT22;24829;49.208;12.080;2022-10-23T02:33:45;10.60;99.90
39079;DHT22;24829;49.208;12.080;2022-10-23T02:36:11;10.60;99.90
39079;DHT22;24829;49.208;12.080;2022-10-23T02:38:39;10.60;99.90
39079;DHT22;24829;49.208;12.080;2022-10-23T02:46:42;10.60;99.90
39079;DHT22;24829;49.208;12.080;2022-10-23T02:49:23;10.50;99.90
39079;DHT22;24829;49.208;12.080;2022-10-23T02:52:22;10.50;99.90
39079;DHT22;24829;49.208;12.080;2022-10-23T02:55:27;10.60;99.90
39079;DHT22;24829;49.208;12.080;2022-10-23T02:58:02;10.50;99.90
39079;DHT22;24829;49.208;12.080;2022-10-23T03:00:35;10.50;99.90
39079;DHT22;24829;49.208;12.080;2022-10-23T03:03:10;10.50;99.90
39079;DHT22;24829;49.208;12.080;2022-10-23T03:05:39;10.40;99.90
39079;DHT22;24829;49.208;12.080;2022-10-23T03:08:07;10.40;99.90
39079;DHT22;24829;49.208;12.080;2022-10-23T03:10:33;10.40;99.90
39079;DHT22;24829;49.208;12.080;2022-10-23T03:12:58;10.40;99.90
39079;DHT22;24829;49.208;12.080;2022-10-23T03:15:24;10.40;99.90
39079;DHT22;24829;49.208;12.080;2022-10-23T03:17:50;10.40;99.90
39079;DHT22;24829;49.208;12.080;2022-10-23T03:20:15;10.40;99.90
39079;DHT22;24829;49.208;12.080;2022-10-23T03:22:41;10.50;99.90
39079;DHT22;24829;49.208;12.080;2022-10-23T03:25:07;10.50;99.90
39079;DHT22;24829;49.208;12.080;2022-10-23T03:27:33;10.50;99.90
39079;DHT22;24829;49.208;12.080;2022-10-23T03:29:58;10.60;99.90
39079;DHT22;24829;49.208;12.080;2022-10-23T03:32:24;10.60;99.90
39079;DHT22;24829;49.208;12.080;2022-10-23T03:34:49;10.60;99.90
39079;DHT22;24829;49.208;12.080;2022-10-23T03:37:15;10.50;99.90
39079;DHT22;24829;49.208;12.080;2022-10-23T03:39:40;10.60;99.90
39079;DHT22;24829;49.208;12.080;2022-10-23T03:42:06;10.60;99.90
39079;DHT22;24829;49.208;12.080;2022-10-23T03:44:31;10.60;99.90
39079;DHT22;24829;49.208;12.080;2022-10-23T03:46:58;10.50;99.90
39079;DHT22;24829;49.208;12.080;2022-10-23T03:49:24;10.50;99.90
39079;DHT22;24829;49.208;12.080;2022-10-23T03:51:49;10.40;99.90
39079;DHT22;24829;49.208;12.080;2022-10-23T03:54:25;10.30;99.90
39079;DHT22;24829;49.208;12.080;2022-10-23T03:56:51;10.30;99.90
39079;DHT22;24829;49.208;12.080;2022-10-23T03:59:17;10.30;99.90
39079;DHT22;24829;49.208;12.080;2022-10-23T04:01:43;10.30;99.90
39079;DHT22;24829;49.208;12.080;2022-10-23T04:04:08;10.20;99.90
39079;DHT22;24829;49.208;12.080;2022-10-23T04:06:34;10.20;99.90
39079;DHT22;24829;49.208;12.080;2022-10-23T04:09:00;10.20;99.90
39079;DHT22;24829;49.208;12.080;2022-10-23T04:11:26;10.20;99.90
39079;DHT22;24829;49.208;12.080;2022-10-23T04:13:51;10.30;99.90
39079;DHT22;24829;49.208;12.080;2022-10-23T04:16:17;10.20;99.90
39079;DHT22;24829;49.208;12.080;2022-10-23T04:18:43;10.30;99.90
39079;DHT22;24829;49.208;12.080;2022-10-23T04:21:09;10.30;99.90
39079;DHT22;24829;49.208;12.080;2022-10-23T04:23:34;10.30;99.90
39079;DHT22;24829;49.208;12.080;2022-10-23T04:26:00;10.30;99.90
39079;DHT22;24829;49.208;12.080;2022-10-23T04:28:26;10.30;99.90
39079;DHT22;24829;49.208;12.080;2022-10-23T04:30:51;10.30;99.90
39079;DHT22;24829;49.208;12.080;2022-10-23T04:33:17;10.30;99.90
39079;DHT22;24829;49.208;12.080;2022-10-23T04:35:43;10.30;99.90
39079;DHT22;24829;49.208;12.080;2022-10-23T04:38:09;10.30;99.90
39079;DHT22;24829;49.208;12.080;2022-10-23T04:40:34;10.30;99.90
39079;DHT22;24829;49.208;12.080;2022-10-23T04:43:00;10.20;99.90
39079;DHT22;24829;49.208;12.080;2022-10-23T04:45:26;10.20;99.90
39079;DHT22;24829;49.208;12.080;2022-10-23T04:47:52;10.20;99.90
39079;DHT22;24829;49.208;12.080;2022-10-23T04:50:18;10.30;99.90
39079;DHT22;24829;49.208;12.080;2022-10-23T04:52:44;10.30;99.90
39079;DHT22;24829;49.208;12.080;2022-10-23T04:55:10;10.40;99.90
39079;DHT22;24829;49.208;12.080;2022-10-23T04:57:36;10.40;99.90
39079;DHT22;24829;49.208;12.080;2022-10-23T05:00:04;10.40;99.90
39079;DHT22;24829;49.208;12.080;2022-10-23T05:02:30;10.40;99.90
39079;DHT22;24829;49.208;12.080;2022-10-23T05:04:56;10.50;99.90
39079;DHT22;24829;49.208;12.080;2022-10-23T05:07:22;10.50;99.90
39079;DHT22;24829;49.208;12.080;2022-10-23T05:09:47;10.40;99.90
39079;DHT22;24829;49.208;12.080;2022-10-23T05:12:13;10.40;99.90
39079;DHT22;24829;49.208;12.080;2022-10-23T05:14:39;10.40;99.90
39079;DHT22;24829;49.208;12.080;2022-10-23T05:17:15;10.40;99.90
39079;DHT22;24829;49.208;12.080;2022-10-23T05:19:47;10.40;99.90
39079;DHT22;24829;49.208;12.080;2022-10-23T05:22:16;10.40;99.90
39079;DHT22;24829;49.208;12.080;2022-10-23T05:24:42;10.40;99.90
39079;DHT22;24829;49.208;12.080;2022-10-23T05:27:08;10.40;99.90
39079;DHT22;24829;49.208;12.080;2022-10-23T05:29:33;10.40;99.90
39079;DHT22;24829;49.208;12.080;2022-10-23T05:32:01;10.40;99.90
39079;DHT22;24829;49.208;12.080;2022-10-23T05:34:29;10.40;99.90
39079;DHT22;24829;49.208;12.080;2022-10-23T05:36:57;10.40;99.90
39079;DHT22;24829;49.208;12.080;2022-10-23T05:39:23;10.40;99.90
39079;DHT22;24829;49.208;12.080;2022-10-23T05:41:49;10.40;99.90
39079;DHT22;24829;49.208;12.080;2022-10-23T05:44:15;10.40;99.90
39079;DHT22;24829;49.208;12.080;2022-10-23T05:46:41;10.40;99.90
39079;DHT22;24829;49.208;12.080;2022-10-23T05:49:07;10.50;99.90
39079;DHT22;24829;49.208;12.080;2022-10-23T05:51:35;10.50;99.90
39079;DHT22;24829;49.208;12.080;2022-10-23T05:54:01;10.50;99.90
39079;DHT22;24829;49.208;12.080;2022-10-23T05:56:27;10.50;99.90
39079;DHT22;24829;49.208;12.080;2022-10-23T05:58:52;10.50;99.90
39079;DHT22;24829;49.208;12.080;2022-10-23T06:01:18;10.50;99.90
39079;DHT22;24829;49.208;12.080;2022-10-23T06:03:44;10.50;99.90
39079;DHT22;24829;49.208;12.080;2022-10-23T06:06:09;10.60;99.90
39079;DHT22;24829;49.208;12.080;2022-10-23T06:08:35;10.50;99.90
39079;DHT22;24829;49.208;12.080;2022-10-23T06:11:07;10.40;99.90
39079;DHT22;24829;49.208;12.080;2022-10-23T06:13:34;10.30;99.90
39079;DHT22;24829;49.208;12.080;2022-10-23T06:16:16;10.30;99.90
39079;DHT22;24829;49.208;12.080;2022-10-23T06:18:43;10.30;99.90
39079;DHT22;24829;49.208;12.080;2022-10-23T06:21:09;10.30;99.90
39079;DHT22;24829;49.208;12.080;2022-10-23T06:23:36;10.30;99.90
39079;DHT22;24829;49.208;12.080;2022-10-23T06:26:02;10.30;99.90
39079;DHT22;24829;49.208;12.080;2022-10-23T06:28:28;10.30;99.90
39079;DHT22;24829;49.208;12.080;2022-10-23T06:30:54;10.30;99.90
39079;DHT22;24829;49.208;12.080;2022-10-23T06:33:20;10.40;99.90
39079;DHT22;24829;49.208;12.080;2022-10-23T06:35:45;10.40;99.90
39079;DHT22;24829;49.208;12.080;2022-10-23T06:38:11;10.50;99.90
39079;DHT22;24829;49.208;12.080;2022-10-23T06:40:37;10.50;99.90
39079;DHT22;24829;49.208;12.080;2022-10-23T06:43:04;10.50;99.90
39079;DHT22;24829;49.208;12.080;2022-10-23T06:45:30;10.50;99.90
39079;DHT22;24829;49.208;12.080;2022-10-23T06:47:58;10.50;99.90
39079;DHT22;24829;49.208;12.080;2022-10-23T06:50:24;10.60;99.90
39079;DHT22;24829;49.208;12.080;2022-10-23T06:52:49;10.60;99.90
39079;DHT22;24829;49.208;12.080;2022-10-23T06:55:15;10.60;99.90
39079;DHT22;24829;49.208;12.080;2022-10-23T06:57:41;10.70;99.90
39079;DHT22;24829;49.208;12.080;2022-10-23T07:00:07;10.70;99.90
39079;DHT22;24829;49.208;12.080;2022-10-23T07:02:33;10.80;99.90
39079;DHT22;24829;49.208;12.080;2022-10-23T07:04:58;10.80;99.90
39079;DHT22;24829;49.208;12.080;2022-10-23T07:07:24;10.80;99.90
39079;DHT22;24829;49.208;12.080;2022-10-23T07:09:49;10.90;99.90
39079;DHT22;24829;49.208;12.080;2022-10-23T07:12:15;10.90;99.90
39079;DHT22;24829;49.208;12.080;2022-10-23T07:14:40;10.90;99.90
39079;DHT22;24829;49.208;12.080;2022-10-23T07:17:06;11.00;99.90
39079;DHT22;24829;49.208;12.080;2022-10-23T07:19:31;11.10;99.90
39079;DHT22;24829;49.208;12.080;2022-10-23T07:21:57;11.10;99.90
39079;DHT22;24829;49.208;12.080;2022-10-23T07:24:23;11.20;99.90
39079;DHT22;24829;49.208;12.080;2022-10-23T07:26:48;11.20;99.90
39079;DHT22;24829;49.208;12.080;2022-10-23T07:29:14;11.30;99.90
39079;DHT22;24829;49.208;12.080;2022-10-23T07:31:39;11.40;99.90
39079;DHT22;24829;49.208;12.080;2022-10-23T07:34:05;11.40;99.90
39079;DHT22;24829;49.208;12.080;2022-10-23T07:36:31;11.40;99.90
39079;DHT22;24829;49.208;12.080;2022-10-23T07:38:56;11.40;99.90
39079;DHT22;24829;49.208;12.080;2022-10-23T07:41:22;11.40;99.90
39079;DHT22;24829;49.208;12.080;2022-10-23T07:43:48;11.40;99.90
39079;DHT22;24829;49.208;12.080;2022-10-23T07:46:13;11.40;99.90
39079;DHT22;24829;49.208;12.080;2022-10-23T07:48:39;11.50;99.90
39079;DHT22;24829;49.208;12.080;2022-10-23T07:51:09;11.50;99.90
39079;DHT22;24829;49.208;12.080;2022-10-23T07:53:36;11.50;99.90
39079;DHT22;24829;49.208;12.080;2022-10-23T07:56:08;11.50;99.90
39079;DHT22;24829;49.208;12.080;2022-10-23T07:58:34;11.50;99.90
39079;DHT22;24829;49.208;12.080;2022-10-23T08:01:01;11.50;99.90
39079;DHT22;24829;49.208;12.080;2022-10-23T08:03:29;11.60;99.90
39079;DHT22;24829;49.208;12.080;2022-10-23T08:05:55;11.60;99.90
39079;DHT22;24829;49.208;12.080;2022-10-23T08:08:21;11.60;99.90
39079;DHT22;24829;49.208;12.080;2022-10-23T08:10:48;11.60;99.90
39079;DHT22;24829;49.208;12.080;2022-10-23T08:13:14;11.70;99.90
39079;DHT22;24829;49.208;12.080;2022-10-23T08:15:40;11.80;99.90
39079;DHT22;24829;49.208;12.080;2022-10-23T08:18:07;11.90;99.90
39079;DHT22;24829;49.208;12.080;2022-10-23T08:20:37;12.10;99.90
39079;DHT22;24829;49.208;12.080;2022-10-23T08:23:03;12.20;99.90
39079;DHT22;24829;49.208;12.080;2022-10-23T08:25:29;12.40;99.90
39079;DHT22;24829;49.208;12.080;2022-10-23T08:27:54;12.60;99.90
39079;DHT22;24829;49.208;12.080;2022-10-23T08:30:20;12.70;99.90
39079;DHT22;24829;49.208;12.080;2022-10-23T08:32:45;12.80;99.90
39079;DHT22;24829;49.208;12.080;2022-10-23T08:35:11;12.90;99.90
39079;DHT22;24829;49.208;12.080;2022-10-23T08:37:36;12.90;99.90
39079;DHT22;24829;49.208;12.080;2022-10-23T08:40:02;13.00;99.90
39079;DHT22;24829;49.208;12.080;2022-10-23T08:42:28;13.10;99.90
39079;DHT22;24829;49.208;12.080;2022-10-23T08:45:37;13.30;99.90
39079;DHT22;24829;49.208;12.080;2022-10-23T08:48:33;13.40;99.90
39079;DHT22;24829;49.208;12.080;2022-10-23T08:51:26;13.60;99.90
39079;DHT22;24829;49.208;12.080;2022-10-23T08:54:07;13.70;99.90
39079;DHT22;24829;49.208;12.080;2022-10-23T08:56:41;13.80;99.90
39079;DHT22;24829;49.208;12.080;2022-10-23T08:59:11;13.80;99.90
39079;DHT22;24829;49.208;12.080;2022-10-23T09:01:48;13.90;99.90
39079;DHT22;24829;49.208;12.080;2022-10-23T09:04:16;13.90;99.90
39079;DHT22;24829;49.208;12.080;2022-10-23T09:12:22;13.90;99.90
39079;DHT22;24829;49.208;12.080;2022-10-23T09:18:06;13.90;99.90
39079;DHT22;24829;49.208;12.080;2022-10-23T09:20:35;13.90;99.90
39079;DHT22;24829;49.208;12.080;2022-10-23T09:23:11;13.90;99.90
39079;DHT22;24829;49.208;12.080;2022-10-23T09:25:40;14.00;99.90
39079;DHT22;24829;49.208;12.080;2022-10-23T09:28:19;14.00;99.90
39079;DHT22;24829;49.208;12.080;2022-10-23T09:30:45;14.10;99.90
39079;DHT22;24829;49.208;12.080;2022-10-23T09:38:26;14.00;99.90
39079;DHT22;24829;49.208;12.080;2022-10-23T09:40:52;14.00;99.90
39079;DHT22;24829;49.208;12.080;2022-10-23T09:43:19;14.00;99.90
39079;DHT22;24829;49.208;12.080;2022-10-23T09:46:01;14.10;99.90
39079;DHT22;24829;49.208;12.080;2022-10-23T09:48:27;14.10;99.90
39079;DHT22;24829;49.208;12.080;2022-10-23T09:50:59;14.10;99.90
39079;DHT22;24829;49.208;12.080;2022-10-23T09:53:37;14.10;99.90
39079;DHT22;24829;49.208;12.080;2022-10-23T10:01:29;14.10;99.90
39079;DHT22;24829;49.208;12.080;2022-10-23T10:03:55;14.10;99.90
39079;DHT22;24829;49.208;12.080;2022-10-23T10:06:30;14.10;99.90
39079;DHT22;24829;49.208;12.080;2022-10-23T10:08:58;14.20;99.90
39079;DHT22;24829;49.208;12.080;2022-10-23T10:17:17;14.10;99.90
39079;DHT22;24829;49.208;12.080;2022-10-23T10:20:11;14.10;99.90
39079;DHT22;24829;49.208;12.080;2022-10-23T10:22:52;14.10;99.90
39079;DHT22;24829;49.208;12.080;2022-10-23T10:25:28;14.00;99.90
39079;DHT22;24829;49.208;12.080;2022-10-23T10:34:10;14.00;99.90
39079;DHT22;24829;49.208;12.080;2022-10-23T10:47:58;14.00;99.90
39079;DHT22;24829;49.208;12.080;2022-10-23T10:50:54;14.00;99.90
39079;DHT22;24829;49.208;12.080;2022-10-23T10:56:03;14.00;99.90
39079;DHT22;24829;49.208;12.080;2022-10-23T10:58:37;14.10;99.90
39079;DHT22;24829;49.208;12.080;2022-10-23T11:03:53;14.20;99.90
39079;DHT22;24829;49.208;12.080;2022-10-23T11:06:22;14.20;99.90
39079;DHT22;24829;49.208;12.080;2022-10-23T11:08:49;14.20;99.90
39079;DHT22;24829;49.208;12.080;2022-10-23T11:11:19;14.30;99.90
39079;DHT22;24829;49.208;12.080;2022-10-23T11:13:46;14.40;99.90
39079;DHT22;24829;49.208;12.080;2022-10-23T11:16:16;14.50;99.90
39079;DHT22;24829;49.208;12.080;2022-10-23T11:18:45;14.60;99.90
39079;DHT22;24829;49.208;12.080;2022-10-23T11:37:32;14.80;99.90
39079;DHT22;24829;49.208;12.080;2022-10-23T11:40:22;14.80;99.90
39079;DHT22;24829;49.208;12.080;2022-10-23T11:42:49;14.80;99.90
39079;DHT22;24829;49.208;12.080;2022-10-23T11:45:35;14.80;99.90
39079;DHT22;24829;49.208;12.080;2022-10-23T11:48:18;14.80;99.90
39079;DHT22;24829;49.208;12.080;2022-10-23T11:56:22;14.90;99.90
39079;DHT22;24829;49.208;12.080;2022-10-23T11:58:56;15.00;99.90
39079;DHT22;24829;49.208;12.080;2022-10-23T12:06:45;15.40;99.90
39079;DHT22;24829;49.208;12.080;2022-10-23T12:14:45;15.50;99.90
39079;DHT22;24829;49.208;12.080;2022-10-23T12:20:02;15.60;99.90
39079;DHT22;24829;49.208;12.080;2022-10-23T12:25:50;15.60;99.90
39079;DHT22;24829;49.208;12.080;2022-10-23T12:28:41;15.60;99.90
39079;DHT22;24829;49.208;12.080;2022-10-23T12:39:34;15.80;99.90
39079;DHT22;24829;49.208;12.080;2022-10-23T12:42:02;15.80;99.90
39079;DHT22;24829;49.208;12.080;2022-10-23T12:44:29;15.80;99.90
39079;DHT22;24829;49.208;12.080;2022-10-23T12:47:02;15.80;99.90
39079;DHT22;24829;49.208;12.080;2022-10-23T12:49:30;15.80;99.90
39079;DHT22;24829;49.208;12.080;2022-10-23T12:52:12;15.90;99.90
39079;DHT22;24829;49.208;12.080;2022-10-23T12:54:39;15.90;99.90
39079;DHT22;24829;49.208;12.080;2022-10-23T12:57:25;15.90;99.90
39079;DHT22;24829;49.208;12.080;2022-10-23T13:00:00;15.90;99.90
39079;DHT22;24829;49.208;12.080;2022-10-23T13:02:30;15.90;99.90
39079;DHT22;24829;49.208;12.080;2022-10-23T13:05:02;15.90;99.90
39079;DHT22;24829;49.208;12.080;2022-10-23T13:07:34;15.90;99.90
39079;DHT22;24829;49.208;12.080;2022-10-23T13:10:02;16.00;99.90
39079;DHT22;24829;49.208;12.080;2022-10-23T13:12:30;16.00;99.90
39079;DHT22;24829;49.208;12.080;2022-10-23T13:15:14;16.00;99.90
39079;DHT22;24829;49.208;12.080;2022-10-23T13:17:45;16.10;99.90
39079;DHT22;24829;49.208;12.080;2022-10-23T13:23:38;16.10;99.90
39079;DHT22;24829;49.208;12.080;2022-10-23T13:25:38;16.10;99.90
39079;DHT22;24829;49.208;12.080;2022-10-23T13:28:11;16.10;99.90
39079;DHT22;24829;49.208;12.080;2022-10-23T13:30:40;16.10;99.90
39079;DHT22;24829;49.208;12.080;2022-10-23T13:33:25;16.20;99.90
39079;DHT22;24829;49.208;12.080;2022-10-23T13:36:03;16.20;99.90
39079;DHT22;24829;49.208;12.080;2022-10-23T13:38:34;16.20;99.90
39079;DHT22;24829;49.208;12.080;2022-10-23T13:41:03;16.20;99.90
39079;DHT22;24829;49.208;12.080;2022-10-23T13:43:30;16.20;99.90
39079;DHT22;24829;49.208;12.080;2022-10-23T13:45:57;16.20;99.90
39079;DHT22;24829;49.208;12.080;2022-10-23T13:48:23;16.10;99.90
39079;DHT22;24829;49.208;12.080;2022-10-23T13:50:49;16.10;99.90
39079;DHT22;24829;49.208;12.080;2022-10-23T13:53:15;16.10;99.90
39079;DHT22;24829;49.208;12.080;2022-10-23T13:55:43;16.10;99.90
39079;DHT22;24829;49.208;12.080;2022-10-23T13:58:09;16.10;99.90
39079;DHT22;24829;49.208;12.080;2022-10-23T14:00:36;16.00;99.90
39079;DHT22;24829;49.208;12.080;2022-10-23T14:03:03;16.00;99.90
39079;DHT22;24829;49.208;12.080;2022-10-23T14:05:29;16.10;99.90
39079;DHT22;24829;49.208;12.080;2022-10-23T14:07:54;16.00;99.90
39079;DHT22;24829;49.208;12.080;2022-10-23T14:10:20;16.00;99.90
39079;DHT22;24829;49.208;12.080;2022-10-23T14:12:46;16.00;99.90
39079;DHT22;24829;49.208;12.080;2022-10-23T14:15:12;16.00;99.90
39079;DHT22;24829;49.208;12.080;2022-10-23T14:17:37;16.00;99.90
39079;DHT22;24829;49.208;12.080;2022-10-23T14:20:04;16.00;99.90
39079;DHT22;24829;49.208;12.080;2022-10-23T14:22:30;16.00;99.90
39079;DHT22;24829;49.208;12.080;2022-10-23T14:24:55;15.90;99.90
39079;DHT22;24829;49.208;12.080;2022-10-23T14:27:21;16.00;99.90
39079;DHT22;24829;49.208;12.080;2022-10-23T14:29:47;16.00;99.90
39079;DHT22;24829;49.208;12.080;2022-10-23T14:32:13;15.90;99.90
39079;DHT22;24829;49.208;12.080;2022-10-23T14:34:42;15.90;99.90
39079;DHT22;24829;49.208;12.080;2022-10-23T14:37:10;15.90;99.90
39079;DHT22;24829;49.208;12.080;2022-10-23T14:39:35;15.90;99.90
39079;DHT22;24829;49.208;12.080;2022-10-23T14:42:01;15.80;99.90
39079;DHT22;24829;49.208;12.080;2022-10-23T14:44:27;15.80;99.90
39079;DHT22;24829;49.208;12.080;2022-10-23T14:46:52;15.80;99.90
39079;DHT22;24829;49.208;12.080;2022-10-23T14:49:18;15.80;99.90
39079;DHT22;24829;49.208;12.080;2022-10-23T14:51:46;15.80;99.90
39079;DHT22;24829;49.208;12.080;2022-10-23T14:54:12;15.70;99.90
39079;DHT22;24829;49.208;12.080;2022-10-23T14:56:38;15.60;99.90
39079;DHT22;24829;49.208;12.080;2022-10-23T14:59:05;15.60;99.90
39079;DHT22;24829;49.208;12.080;2022-10-23T15:01:34;15.50;99.90
39079;DHT22;24829;49.208;12.080;2022-10-23T15:04:01;15.50;99.90
39079;DHT22;24829;49.208;12.080;2022-10-23T15:06:26;15.40;99.90
39079;DHT22;24829;49.208;12.080;2022-10-23T15:08:54;15.30;99.90
39079;DHT22;24829;49.208;12.080;2022-10-23T15:11:22;15.30;99.90
39079;DHT22;24829;49.208;12.080;2022-10-23T15:13:47;15.20;99.90
39079;DHT22;24829;49.208;12.080;2022-10-23T15:16:13;15.20;99.90
39079;DHT22;24829;49.208;12.080;2022-10-23T15:18:39;15.20;99.90
39079;DHT22;24829;49.208;12.080;2022-10-23T15:21:06;15.20;99.90
39079;DHT22;24829;49.208;12.080;2022-10-23T15:23:40;15.20;99.90
39079;DHT22;24829;49.208;12.080;2022-10-23T15:26:08;15.10;99.90
39079;DHT22;24829;49.208;12.080;2022-10-23T15:28:34;15.10;99.90
39079;DHT22;24829;49.208;12.080;2022-10-23T15:31:00;15.10;99.90
39079;DHT22;24829;49.208;12.080;2022-10-23T15:33:26;15.10;99.90
39079;DHT22;24829;49.208;12.080;2022-10-23T15:35:52;15.10;99.90
39079;DHT22;24829;49.208;12.080;2022-10-23T15:38:19;15.00;99.90
39079;DHT22;24829;49.208;12.080;2022-10-23T15:40:45;15.00;99.90
39079;DHT22;24829;49.208;12.080;2022-10-23T15:43:11;14.90;99.90
39079;DHT22;24829;49.208;12.080;2022-10-23T15:45:37;14.90;99.90
39079;DHT22;24829;49.208;12.080;2022-10-23T15:48:04;14.90;99.90
39079;DHT22;24829;49.208;12.080;2022-10-23T15:50:30;14.80;99.90
39079;DHT22;24829;49.208;12.080;2022-10-23T15:52:56;14.80;99.90
39079;DHT22;24829;49.208;12.080;2022-10-23T15:55:22;14.80;99.90
39079;DHT22;24829;49.208;12.080;2022-10-23T15:57:48;14.70;99.90
39079;DHT22;24829;49.208;12.080;2022-10-23T16:00:13;14.70;99.90
39079;DHT22;24829;49.208;12.080;2022-10-23T16:02:39;14.60;99.90
39079;DHT22;24829;49.208;12.080;2022-10-23T16:05:05;14.50;99.90
39079;DHT22;24829;49.208;12.080;2022-10-23T16:07:31;14.50;99.90
39079;DHT22;24829;49.208;12.080;2022-10-23T16:09:56;14.40;99.90
39079;DHT22;24829;49.208;12.080;2022-10-23T16:12:22;14.40;99.90
39079;DHT22;24829;49.208;12.080;2022-10-23T16:14:48;14.30;99.90
39079;DHT22;24829;49.208;12.080;2022-10-23T16:17:14;14.20;99.90
39079;DHT22;24829;49.208;12.080;2022-10-23T16:19:39;14.20;99.90
39079;DHT22;24829;49.208;12.080;2022-10-23T16:22:06;14.10;99.90
39079;DHT22;24829;49.208;12.080;2022-10-23T16:24:32;14.10;99.90
39079;DHT22;24829;49.208;12.080;2022-10-23T16:26:58;14.00;99.90
39079;DHT22;24829;49.208;12.080;2022-10-23T16:29:25;13.90;99.90
39079;DHT22;24829;49.208;12.080;2022-10-23T16:31:52;13.80;99.90
39079;DHT22;24829;49.208;12.080;2022-10-23T16:34:18;13.80;99.90
39079;DHT22;24829;49.208;12.080;2022-10-23T16:36:44;13.80;99.90
39079;DHT22;24829;49.208;12.080;2022-10-23T16:39:11;13.70;99.90
39079;DHT22;24829;49.208;12.080;2022-10-23T16:41:37;13.70;99.90
39079;DHT22;24829;49.208;12.080;2022-10-23T16:44:03;13.60;99.90
39079;DHT22;24829;49.208;12.080;2022-10-23T16:46:29;13.60;99.90
39079;DHT22;24829;49.208;12.080;2022-10-23T16:48:54;13.50;99.90
39079;DHT22;24829;49.208;12.080;2022-10-23T16:51:23;13.50;99.90
39079;DHT22;24829;49.208;12.080;2022-10-23T16:53:49;13.50;99.90
39079;DHT22;24829;49.208;12.080;2022-10-23T16:56:18;13.50;99.90
39079;DHT22;24829;49.208;12.080;2022-10-23T16:58:44;13.40;99.90
39079;DHT22;24829;49.208;12.080;2022-10-23T17:01:19;13.50;99.90
39079;DHT22;24829;49.208;12.080;2022-10-23T17:03:47;13.50;99.90
39079;DHT22;24829;49.208;12.080;2022-10-23T17:06:17;13.40;99.90
39079;DHT22;24829;49.208;12.080;2022-10-23T17:08:43;13.40;99.90
39079;DHT22;24829;49.208;12.080;2022-10-23T17:11:21;13.40;99.90
39079;DHT22;24829;49.208;12.080;2022-10-23T17:13:53;13.40;99.90
39079;DHT22;24829;49.208;12.080;2022-10-23T17:16:37;13.40;99.90
39079;DHT22;24829;49.208;12.080;2022-10-23T17:19:05;13.40;99.90
39079;DHT22;24829;49.208;12.080;2022-10-23T17:21:33;13.40;99.90
39079;DHT22;24829;49.208;12.080;2022-10-23T17:23:59;13.40;99.90